Time;durP1;ratioP1;P1;durP2;ratioP2;P2;SDS_P1;SDS_P2;PMS_P1;PMS_P2;Temp;Humidity;BMP_temperature;BMP_pressure;BME280_temperature;BME280_humidity;BME280_pressure;Samples;Min_cycle;Max_cycle;Signal;HPM_P1;HPM_P2
2022/06/20 00:01:10;;;;;;;4.53;3.78;;;18.20;99.90;;;;;;4919380;29;20023;-75
2022/06/20 00:03:39;;;;;;;4.45;3.92;;;18.20;99.90;;;;;;4935133;29;20039;-75
2022/06/20 00:06:05;;;;;;;4.10;3.80;;;18.10;99.90;;;;;;4919283;29;20036;-74
2022/06/20 00:08:31;;;;;;;4.05;3.63;;;18.10;99.90;;;;;;4936397;29;20083;-74
2022/06/20 00:10:57;;;;;;;5.00;3.80;;;18.10;99.90;;;;;;4935095;29;20028;-74
2022/06/20 00:13:31;;;;;;;7.25;4.32;;;18.10;99.90;;;;;;4935037;29;20038;-75
2022/06/20 00:15:57;;;;;;;6.80;4.18;;;18.10;99.90;;;;;;4919469;29;20120;-74
2022/06/20 00:18:23;;;;;;;7.32;4.22;;;18.00;99.90;;;;;;4936255;29;20111;-75
2022/06/20 00:20:49;;;;;;;8.43;4.47;;;18.00;99.90;;;;;;4936265;29;20034;-75
2022/06/20 00:23:15;;;;;;;5.68;3.80;;;17.90;99.90;;;;;;4936001;29;20395;-75
2022/06/20 00:25:41;;;;;;;5.93;3.88;;;17.90;99.90;;;;;;4936107;29;20055;-74
2022/06/20 00:28:09;;;;;;;5.82;4.70;;;17.80;99.90;;;;;;4936371;29;20039;-75
2022/06/20 00:30:36;;;;;;;5.45;4.30;;;17.80;99.90;;;;;;4938221;29;20035;-74
2022/06/20 00:33:02;;;;;;;4.85;4.35;;;17.80;99.90;;;;;;4922717;29;20027;-75
2022/06/20 00:35:28;;;;;;;5.32;4.35;;;17.80;99.90;;;;;;4939744;29;20030;-75
2022/06/20 00:37:57;;;;;;;6.53;4.63;;;17.70;99.90;;;;;;4939722;29;20376;-74
2022/06/20 00:40:53;;;;;;;5.28;4.78;;;17.70;99.90;;;;;;4939970;29;20028;-75
2022/06/20 00:43:31;;;;;;;5.20;4.72;;;17.70;99.90;;;;;;4911184;29;20564;-75
2022/06/20 00:46:01;;;;;;;5.28;4.78;;;17.60;99.90;;;;;;4939564;29;20069;-75
2022/06/20 00:48:32;;;;;;;8.30;4.68;;;17.70;99.90;;;;;;4940119;29;20042;-75
2022/06/20 00:51:04;;;;;;;4.90;4.40;;;17.60;99.90;;;;;;4922611;29;20380;-75
2022/06/20 00:53:37;;;;;;;7.10;5.13;;;18.70;99.90;;;;;;4939556;29;20019;-75
2022/06/20 00:56:26;;;;;;;7.05;5.20;;;17.50;99.90;;;;;;4922313;29;20531;-75
2022/06/20 00:59:16;;;;;;;5.38;4.88;;;17.50;99.90;;;;;;4939615;29;20410;-74
2022/06/20 01:01:42;;;;;;;7.15;5.22;;;17.40;99.90;;;;;;4939398;29;20038;-74
2022/06/20 01:04:14;;;;;;;5.43;4.78;;;17.40;99.90;;;;;;4939442;29;20028;-75
2022/06/20 01:06:46;;;;;;;4.85;4.45;;;17.40;99.90;;;;;;4922269;29;20032;-74
2022/06/20 01:09:14;;;;;;;6.50;4.80;;;17.30;99.90;;;;;;4939297;29;20457;-74
2022/06/20 01:11:50;;;;;;;6.05;5.45;;;17.30;99.90;;;;;;4922087;29;20035;-74
2022/06/20 01:14:38;;;;;;;5.22;4.57;;;17.20;99.90;;;;;;4939141;29;20036;-74
2022/06/20 01:17:35;;;;;;;7.20;5.40;;;17.20;99.90;;;;;;4939136;29;20028;-75
2022/06/20 01:20:17;;;;;;;5.32;4.53;;;17.20;99.90;;;;;;4939153;29;20020;-74
2022/06/20 01:22:55;;;;;;;8.10;5.10;;;17.10;99.90;;;;;;4939280;29;20024;-74
2022/06/20 01:25:33;;;;;;;9.00;5.95;;;17.10;99.90;;;;;;4939057;29;20131;-74
2022/06/20 01:28:00;;;;;;;5.10;4.55;;;17.10;99.90;;;;;;4938964;29;20024;-75
2022/06/20 01:30:29;;;;;;;7.10;5.65;;;17.00;99.90;;;;;;4938543;29;20140;-74
2022/06/20 01:32:57;;;;;;;5.68;5.15;;;17.00;99.90;;;;;;4921785;29;20349;-75
2022/06/20 01:38:11;;;;;;;5.18;4.68;;;17.00;99.90;;;;;;4938718;29;20483;-75
2022/06/20 01:40:37;;;;;;;;;;;17.00;99.90;;;;;;4922217;29;20159;-74
2022/06/20 01:43:02;;;;;;;4.97;4.40;;;16.90;99.90;;;;;;4938594;29;19950;-75
2022/06/20 01:48:17;;;;;;;7.95;5.60;;;16.80;99.90;;;;;;4938679;29;20075;-75
2022/06/20 01:50:45;;;;;;;6.57;5.93;;;16.80;99.90;;;;;;4938188;29;20392;-75
2022/06/20 01:53:16;;;;;;;7.30;5.38;;;16.80;99.90;;;;;;4938442;29;20032;-74
2022/06/20 01:55:45;;;;;;;7.18;5.10;;;16.80;99.90;;;;;;4938372;29;20032;-75
2022/06/20 01:58:18;;;;;;;6.07;5.15;;;16.80;99.90;;;;;;4938534;29;20055;-74
2022/06/20 02:00:44;;;;;;;5.97;4.90;;;16.80;99.90;;;;;;4921200;29;20043;-74
2022/06/20 02:03:16;;;;;;;5.78;5.22;;;16.80;99.90;;;;;;4938207;29;20032;-75
2022/06/20 02:05:44;;;;;;;6.22;5.50;;;16.80;99.90;;;;;;4938176;29;20381;-74
2022/06/20 02:08:13;;;;;;;7.18;5.18;;;16.80;99.90;;;;;;4936867;29;20441;-74
2022/06/20 02:11:09;;;;;;;9.40;5.65;;;16.80;99.90;;;;;;4938141;29;20032;-75
2022/06/20 02:13:41;;;;;;;5.22;4.82;;;16.80;99.90;;;;;;4936917;29;20031;-74
2022/06/20 02:16:11;;;;;;;6.03;5.43;;;16.70;99.90;;;;;;4938023;29;20084;-74
2022/06/20 02:18:39;;;;;;;;;;;16.70;99.90;;;;;;4938895;29;20038;-75
2022/06/20 02:21:09;;;;;;;6.45;5.22;;;16.60;99.90;;;;;;4938322;29;19910;-75
2022/06/20 02:23:41;;;;;;;7.15;5.55;;;16.60;99.90;;;;;;4920807;29;20027;-74
2022/06/20 02:26:08;;;;;;;9.27;5.68;;;16.50;99.90;;;;;;4920271;29;20110;-74
2022/06/20 02:28:43;;;;;;;12.50;4.93;;;16.50;99.90;;;;;;4905542;29;20040;-74
2022/06/20 02:31:09;;;;;;;13.52;5.85;;;16.50;99.90;;;;;;4936748;29;20460;-74
2022/06/20 02:33:35;;;;;;;10.85;6.07;;;16.50;99.90;;;;;;4938129;29;20036;-74
2022/06/20 02:36:05;;;;;;;6.43;5.78;;;16.50;99.90;;;;;;4937354;29;20424;-74
2022/06/20 02:38:31;;;;;;;6.00;5.40;;;16.50;99.90;;;;;;4920695;29;20032;-74
2022/06/20 02:40:57;;;;;;;5.65;5.15;;;16.50;99.90;;;;;;4920464;29;20460;-74
2022/06/20 02:43:36;;;;;;;5.95;5.38;;;16.50;99.90;;;;;;4937663;29;20031;-74
2022/06/20 02:46:04;;;;;;;9.10;6.22;;;16.50;99.90;;;;;;4937432;29;20023;-75
2022/06/20 02:48:31;;;;;;;7.63;5.60;;;16.50;99.90;;;;;;4937408;29;20031;-75
2022/06/20 02:51:02;;;;;;;6.68;6.00;;;16.50;99.90;;;;;;4937184;29;20102;-75
2022/06/20 02:53:44;;;;;;;6.47;5.85;;;16.40;99.90;;;;;;4937029;29;20028;-75
2022/06/20 02:56:16;;;;;;;25.17;6.18;;;16.40;99.90;;;;;;4937325;29;20035;-75
2022/06/20 02:58:46;;;;;;;7.25;5.80;;;16.40;99.90;;;;;;4937113;29;20380;-75
2022/06/20 03:01:14;;;;;;;6.47;5.65;;;16.30;99.90;;;;;;4937602;29;20110;-74
2022/06/20 03:03:48;;;;;;;6.03;5.43;;;16.30;99.90;;;;;;4937027;29;20079;-74
2022/06/20 03:06:24;;;;;;;5.80;5.20;;;16.30;99.90;;;;;;4936129;29;20039;-74
2022/06/20 03:08:52;;;;;;;6.50;5.93;;;16.30;99.90;;;;;;4936794;29;20459;-74
2022/06/20 03:11:19;;;;;;;6.47;5.60;;;16.30;99.90;;;;;;4936768;29;20028;-74
2022/06/20 03:13:44;;;;;;;6.90;6.20;;;16.30;99.90;;;;;;4937192;29;20032;-74
2022/06/20 03:16:13;;;;;;;8.82;6.05;;;16.30;99.90;;;;;;4936666;29;20473;-75
2022/06/20 03:18:43;;;;;;;6.55;5.95;;;16.30;99.90;;;;;;4936900;29;20027;-74
2022/06/20 03:21:09;;;;;;;11.43;6.32;;;16.30;99.90;;;;;;4937029;29;20024;-74
2022/06/20 03:23:35;;;;;;;6.30;5.70;;;16.30;99.90;;;;;;4919682;29;20512;-74
2022/06/20 03:26:04;;;;;;;10.02;6.50;;;16.30;99.90;;;;;;4936614;29;20047;-75
2022/06/20 03:28:31;;;;;;;7.38;5.88;;;16.40;99.90;;;;;;4936785;29;20118;-74
2022/06/20 03:30:59;;;;;;;5.57;5.15;;;16.40;99.90;;;;;;4936696;29;20031;-74
2022/06/20 03:33:25;;;;;;;6.95;6.35;;;16.40;99.90;;;;;;4919616;29;20480;-75
2022/06/20 03:35:57;;;;;;;9.95;6.10;;;16.40;99.90;;;;;;4936901;29;20043;-75
2022/06/20 03:38:23;;;;;;;6.90;5.65;;;16.50;99.90;;;;;;4937164;29;20055;-74
2022/06/20 03:40:49;;;;;;;6.75;6.15;;;16.50;99.90;;;;;;4935300;29;20038;-74
2022/06/20 03:43:20;;;;;;;6.22;5.68;;;16.60;99.90;;;;;;4935341;29;20032;-75
2022/06/20 03:45:59;;;;;;;6.70;5.93;;;16.60;99.90;;;;;;4936548;29;20079;-75
2022/06/20 03:48:41;;;;;;;6.25;5.72;;;16.60;99.90;;;;;;4936876;29;20039;-75
2022/06/20 03:51:23;;;;;;;6.18;5.65;;;16.60;99.90;;;;;;4936257;29;20384;-75
2022/06/20 03:54:02;;;;;;;7.63;5.88;;;16.70;99.90;;;;;;4919536;29;20035;-75
2022/06/20 03:56:37;;;;;;;7.50;5.80;;;16.80;99.90;;;;;;4936778;29;20027;-75
2022/06/20 03:59:27;;;;;;;8.38;5.57;;;16.80;99.90;;;;;;4935261;29;20063;-75
2022/06/20 04:02:06;;;;;;;6.30;5.70;;;16.80;99.90;;;;;;4919405;29;20035;-74
2022/06/20 04:04:46;;;;;;;6.40;5.80;;;16.90;99.90;;;;;;4919709;29;20040;-75
2022/06/20 04:07:21;;;;;;;7.78;6.40;;;16.90;99.90;;;;;;4940322;29;20091;-76
2022/06/20 04:13:01;;;;;;;10.25;6.35;;;17.00;99.90;;;;;;4920112;29;20047;-69
2022/06/20 04:15:51;;;;;;;8.45;5.93;;;17.10;99.90;;;;;;4940464;29;20028;-67
2022/06/20 04:18:27;;;;;;;7.20;5.60;;;17.20;99.90;;;;;;4931876;29;20048;-68
2022/06/20 04:21:03;;;;;;;5.65;5.18;;;17.30;99.90;;;;;;4939912;29;20119;-80
2022/06/20 04:23:47;;;;;;;5.95;5.28;;;17.30;99.90;;;;;;4940025;29;20023;-80
2022/06/20 04:26:33;;;;;;;10.02;5.70;;;17.40;99.90;;;;;;4939901;29;20051;-80
2022/06/20 04:29:04;;;;;;;6.00;5.40;;;17.50;99.90;;;;;;4939468;29;20050;-78
2022/06/20 04:31:33;;;;;;;9.65;5.97;;;17.60;99.90;;;;;;4939795;29;20047;-76
2022/06/20 04:34:26;;;;;;;7.22;5.70;;;17.60;99.90;;;;;;4940185;29;20035;-77
2022/06/20 04:37:17;;;;;;;7.82;4.97;;;17.70;99.90;;;;;;4940118;29;20031;-76
2022/06/20 04:40:02;;;;;;;8.02;5.10;;;17.80;99.90;;;;;;4913271;29;20122;-77
2022/06/20 04:42:51;;;;;;;9.52;5.78;;;17.80;99.90;;;;;;4922553;29;20028;-77
2022/06/20 04:45:29;;;;;;;9.00;5.00;;;17.90;99.90;;;;;;4939485;29;20035;-79
2022/06/20 04:48:00;;;;;;;5.63;5.03;;;18.00;99.90;;;;;;4939673;29;20379;-79
2022/06/20 04:50:29;;;;;;;6.97;4.70;;;18.10;99.90;;;;;;4939367;29;20536;-79
2022/06/20 04:52:59;;;;;;;5.97;4.93;;;18.20;99.90;;;;;;4922260;29;20134;-79
2022/06/20 04:55:27;;;;;;;6.13;5.05;;;18.20;99.90;;;;;;4922731;29;20031;-79
2022/06/20 04:57:57;;;;;;;6.03;5.10;;;18.30;99.90;;;;;;4939528;29;20036;-78
2022/06/20 05:00:34;;;;;;;7.65;4.63;;;18.40;99.90;;;;;;4939626;29;20035;-79
2022/06/20 05:02:59;;;;;;;5.85;4.47;;;18.60;99.90;;;;;;4939291;29;20059;-79
2022/06/20 05:05:30;;;;;;;5.40;4.90;;;18.70;99.90;;;;;;4922016;29;20067;-78
2022/06/20 05:07:56;;;;;;;5.20;4.07;;;18.80;99.90;;;;;;4939514;29;20032;-78
2022/06/20 05:10:33;;;;;;;4.85;4.20;;;18.90;99.90;;;;;;4939078;29;20048;-78
2022/06/20 05:13:07;;;;;;;4.70;4.13;;;19.00;99.90;;;;;;4939400;29;20027;-78
2022/06/20 05:15:41;;;;;;;4.07;3.67;;;19.10;99.90;;;;;;4938335;29;20440;-78
2022/06/20 05:18:29;;;;;;;8.93;3.90;;;19.30;99.90;;;;;;4937677;29;20036;-78
2022/06/20 05:20:59;;;;;;;4.25;3.63;;;19.50;99.90;;;;;;4939180;29;20036;-79
2022/06/20 05:23:44;;;;;;;5.43;3.90;;;19.60;99.90;;;;;;4938936;29;20107;-78
2022/06/20 05:26:15;;;;;;;4.70;4.15;;;19.70;99.90;;;;;;4938869;29;20059;-78
2022/06/20 05:28:42;;;;;;;4.00;3.70;;;19.90;99.90;;;;;;4938901;29;20019;-78
2022/06/20 05:31:10;;;;;;;4.13;3.83;;;20.00;99.90;;;;;;4950368;28;20117;-78
2022/06/20 05:34:06;;;;;;;4.20;3.80;;;20.10;99.90;;;;;;4957747;29;20026;-78
2022/06/20 05:36:42;;;;;;;5.57;3.67;;;20.20;99.90;;;;;;4955991;29;20049;-79
2022/06/20 05:39:22;;;;;;;4.28;3.88;;;20.30;99.90;;;;;;4940238;29;20031;-79
2022/06/20 05:41:49;;;;;;;7.80;4.03;;;20.40;99.90;;;;;;4940765;29;20023;-79
2022/06/20 05:44:15;;;;;;;3.95;3.35;;;20.50;99.90;;;;;;4957090;29;20027;-79
2022/06/20 05:46:49;;;;;;;6.80;3.72;;;20.60;99.90;;;;;;4957479;29;20054;-79
2022/06/20 05:49:25;;;;;;;5.65;4.30;;;20.70;99.90;;;;;;4957589;29;20034;-79
2022/06/20 05:51:54;;;;;;;4.28;3.83;;;20.90;99.90;;;;;;4940350;29;20383;-80
2022/06/20 05:54:27;;;;;;;10.30;4.70;;;21.00;99.90;;;;;;4940346;29;20109;-79
2022/06/20 05:57:00;;;;;;;4.97;3.60;;;21.10;99.90;;;;;;4957688;29;20058;-79
2022/06/20 05:59:31;;;;;;;7.47;4.30;;;21.30;99.90;;;;;;4940160;29;20027;-77
2022/06/20 06:02:11;;;;;;;9.38;4.00;;;21.40;99.90;;;;;;4957304;29;20051;-79
2022/06/20 06:04:44;;;;;;;8.07;3.55;;;21.50;99.90;;;;;;4939977;29;20035;-77
2022/06/20 06:07:16;;;;;;;4.30;3.45;;;21.60;99.90;;;;;;4957156;29;20035;-77
2022/06/20 06:09:52;;;;;;;4.07;3.55;;;21.80;99.90;;;;;;4957497;29;20517;-77
2022/06/20 06:12:27;;;;;;;4.05;3.65;;;21.80;99.90;;;;;;4957247;29;20046;-77
2022/06/20 06:15:04;;;;;;;6.07;3.47;;;22.00;99.90;;;;;;4957650;29;20031;-77
2022/06/20 06:17:42;;;;;;;6.57;3.35;;;22.10;99.90;;;;;;4939785;29;20035;-78
2022/06/20 06:20:18;;;;;;;4.10;3.70;;;22.30;99.90;;;;;;4957051;29;20074;-77
2022/06/20 06:22:46;;;;;;;4.32;3.35;;;22.70;99.90;;;;;;4939866;29;20387;-77
2022/06/20 06:25:29;;;;;;;4.60;3.30;;;23.30;99.90;;;;;;4956721;29;20466;-77
2022/06/20 06:28:03;;;;;;;14.75;4.53;;;23.80;99.90;;;;;;4939098;29;20042;-78
2022/06/20 06:30:40;;;;;;;5.28;3.33;;;24.10;99.90;;;;;;4957091;29;20463;-78
2022/06/20 06:33:29;;;;;;;4.95;3.70;;;24.40;99.90;;;;;;4939594;29;20028;-77
2022/06/20 06:36:11;;;;;;;2.95;2.72;;;24.80;99.90;;;;;;4939468;29;20039;-77
2022/06/20 06:39:04;;;;;;;5.38;2.78;;;24.90;99.90;;;;;;4939515;29;20027;-77
2022/06/20 06:41:36;;;;;;;3.75;2.85;;;25.00;99.80;;;;;;4955735;29;20078;-77
2022/06/20 06:44:12;;;;;;;6.72;3.20;;;25.10;99.70;;;;;;4956860;29;20023;-78
2022/06/20 06:46:41;;;;;;;6.15;2.90;;;25.40;98.50;;;;;;4956685;29;20067;-78
2022/06/20 06:49:29;;;;;;;4.75;2.90;;;25.70;96.80;;;;;;4939677;29;20023;-78
2022/06/20 06:52:10;;;;;;;3.97;3.30;;;25.90;95.80;;;;;;4956300;29;20063;-78
2022/06/20 06:54:41;;;;;;;6.28;2.92;;;26.00;95.40;;;;;;4956492;29;20031;-78
2022/06/20 06:57:44;;;;;;;4.18;2.65;;;26.00;95.10;;;;;;4956743;29;20035;-78
2022/06/20 07:00:21;;;;;;;7.85;3.80;;;25.90;95.20;;;;;;4939396;29;20031;-78
2022/06/20 07:03:00;;;;;;;3.50;2.83;;;26.20;95.00;;;;;;4956603;29;20356;-78
2022/06/20 07:05:38;;;;;;;;;;;26.50;94.20;;;;;;4956267;29;20028;-78
2022/06/20 07:08:14;;;;;;;7.05;3.15;;;26.40;92.40;;;;;;4956052;29;19944;-78
2022/06/20 07:10:48;;;;;;;3.85;2.88;;;26.10;92.80;;;;;;4938928;29;20031;-78
2022/06/20 07:13:33;;;;;;;3.55;2.70;;;25.70;94.30;;;;;;4939270;29;20031;-77
2022/06/20 07:16:02;;;;;;;4.35;2.75;;;25.80;94.00;;;;;;4956052;29;20031;-77
2022/06/20 07:18:27;;;;;;;;;;;26.10;93.90;;;;;;4956632;29;20034;-78
2022/06/20 07:20:53;;;;;;;4.07;3.33;;;26.30;93.10;;;;;;4956179;29;19906;-78
2022/06/20 07:23:19;;;;;;;6.68;3.58;;;26.30;92.60;;;;;;4955936;29;20102;-77
2022/06/20 07:25:49;;;;;;;3.00;2.70;;;26.50;92.60;;;;;;4955751;29;20079;-77
2022/06/20 07:28:43;;;;;;;2.70;2.50;;;26.40;91.60;;;;;;4938714;29;20037;-77
2022/06/20 07:31:21;;;;;;;5.28;3.10;;;26.50;92.60;;;;;;4955943;29;20027;-77
2022/06/20 07:34:10;;;;;;;4.72;2.60;;;27.10;91.90;;;;;;4955625;29;20094;-78
2022/06/20 07:36:43;;;;;;;3.97;2.63;;;27.80;89.10;;;;;;4955925;29;20038;-78
2022/06/20 07:39:30;;;;;;;4.20;2.85;;;28.20;83.60;;;;;;4955555;28;20062;-77
2022/06/20 07:42:10;;;;;;;3.28;2.30;;;28.60;81.90;;;;;;4938483;29;20062;-77
2022/06/20 07:44:44;;;;;;;6.72;2.80;;;29.00;77.90;;;;;;4955636;29;20427;-77
2022/06/20 07:47:24;;;;;;;3.95;2.85;;;28.70;79.60;;;;;;4938585;29;20033;-78
2022/06/20 07:49:59;;;;;;;2.72;2.53;;;28.40;80.10;;;;;;4938178;29;20027;-77
2022/06/20 07:52:34;;;;;;;5.25;2.80;;;28.90;76.80;;;;;;4955629;29;20043;-77
2022/06/20 07:55:07;;;;;;;5.72;2.42;;;29.20;75.00;;;;;;4955929;29;20110;-77
2022/06/20 07:57:54;;;;;;;2.60;2.40;;;29.70;74.20;;;;;;4956425;29;20088;-77
2022/06/20 08:00:22;;;;;;;3.85;2.35;;;29.90;71.30;;;;;;4954549;29;20128;-77
2022/06/20 08:03:29;;;;;;;3.88;3.58;;;30.10;71.70;;;;;;4938380;29;20463;-78
2022/06/20 08:06:02;;;;;;;3.92;2.50;;;30.20;68.40;;;;;;4944717;29;20044;-77
2022/06/20 08:08:36;;;;;;;3.40;2.72;;;30.40;68.50;;;;;;4938060;29;20027;-79
2022/06/20 08:11:40;;;;;;;3.05;2.78;;;30.70;67.80;;;;;;4955181;29;20050;-77
2022/06/20 08:14:07;;;;;;;4.95;2.80;;;31.10;66.00;;;;;;4955172;29;20467;-77
2022/06/20 08:16:34;;;;;;;3.72;2.80;;;31.10;64.70;;;;;;4955487;29;20475;-78
2022/06/20 08:19:00;;;;;;;3.65;2.88;;;31.00;64.00;;;;;;4955779;29;20475;-78
2022/06/20 08:21:27;;;;;;;5.80;2.50;;;31.20;63.50;;;;;;4955616;29;20177;-78
2022/06/20 08:24:03;;;;;;;3.07;2.73;;;31.00;63.60;;;;;;4955401;29;20055;-80
2022/06/20 08:26:33;;;;;;;8.43;3.10;;;30.90;63.40;;;;;;4937807;29;20138;-77
2022/06/20 08:29:09;;;;;;;3.03;2.72;;;31.00;64.30;;;;;;4954811;29;20387;-77
2022/06/20 08:31:48;;;;;;;6.10;2.42;;;31.60;62.10;;;;;;4954759;29;20039;-77
2022/06/20 08:34:27;;;;;;;6.65;2.70;;;32.10;61.20;;;;;;4938066;29;20121;-78
2022/06/20 08:37:03;;;;;;;15.77;3.00;;;32.20;60.40;;;;;;4955480;29;20123;-78
2022/06/20 08:39:45;;;;;;;3.58;2.67;;;32.30;59.00;;;;;;4938089;29;20031;-78
2022/06/20 08:42:22;;;;;;;4.53;2.97;;;32.00;59.60;;;;;;4955298;29;20028;-78
2022/06/20 08:45:11;;;;;;;5.95;2.90;;;32.20;59.10;;;;;;4955136;29;20066;-78
2022/06/20 08:48:04;;;;;;;3.92;3.08;;;32.40;59.20;;;;;;4955265;29;20031;-78
2022/06/20 08:51:03;;;;;;;5.75;2.90;;;31.90;58.10;;;;;;4955554;28;20035;-78
2022/06/20 08:53:49;;;;;;;3.88;3.05;;;31.30;60.30;;;;;;4958661;29;20086;-79
2022/06/20 08:56:46;;;;;;;5.70;3.50;;;31.30;62.30;;;;;;4958574;29;20028;-78
2022/06/20 08:59:29;;;;;;;4.53;3.20;;;31.50;61.00;;;;;;4941899;29;20031;-78
2022/06/20 09:02:29;;;;;;;3.75;3.03;;;32.00;60.10;;;;;;4941435;29;20062;-78
2022/06/20 09:05:19;;;;;;;4.68;3.25;;;32.60;58.80;;;;;;4957174;29;20101;-80
2022/06/20 09:07:57;;;;;;;3.47;2.80;;;33.10;57.70;;;;;;4958491;29;20114;-80
2022/06/20 09:10:43;;;;;;;6.27;3.00;;;33.30;56.60;;;;;;4958421;29;20035;-81
2022/06/20 09:13:24;;;;;;;6.20;2.97;;;33.90;55.70;;;;;;4941380;29;20070;-81
2022/06/20 09:16:09;;;;;;;5.72;3.10;;;34.10;54.40;;;;;;4958580;29;20027;-81
2022/06/20 09:18:50;;;;;;;4.15;2.85;;;34.40;53.80;;;;;;4958317;29;20039;-81
2022/06/20 09:21:24;;;;;;;6.47;3.20;;;34.50;54.00;;;;;;4940931;29;20028;-81
2022/06/20 09:23:53;;;;;;;3.00;2.80;;;34.80;53.00;;;;;;4958078;29;20028;-81
2022/06/20 09:26:37;;;;;;;;;;;34.60;52.60;;;;;;4958630;29;20055;-79
2022/06/20 09:29:02;;;;;;;5.70;3.30;;;34.40;52.30;;;;;;4940967;29;20294;-79
2022/06/20 09:31:49;;;;;;;5.13;3.13;;;33.40;53.20;;;;;;4958274;29;20027;-79
2022/06/20 09:34:50;;;;;;;11.48;3.60;;;33.20;54.40;;;;;;4958069;29;20110;-79
2022/06/20 09:37:46;;;;;;;7.70;3.72;;;32.80;54.90;;;;;;4957782;29;20031;-79
2022/06/20 09:40:39;;;;;;;4.65;3.80;;;33.00;56.10;;;;;;4957814;29;20494;-78
2022/06/20 09:43:04;;;;;;;7.28;3.45;;;33.10;55.40;;;;;;4957849;29;20035;-78
2022/06/20 09:46:20;;;;;;;6.93;3.38;;;33.50;56.10;;;;;;4957646;29;20042;-80
2022/06/20 09:49:02;;;;;;;9.90;3.70;;;33.10;55.00;;;;;;4863934;29;20041;-78
2022/06/20 09:51:46;;;;;;;4.60;3.90;;;32.60;56.10;;;;;;4950108;29;20050;-82
2022/06/20 09:54:14;;;;;;;7.47;3.42;;;32.40;57.60;;;;;;4940261;29;20085;-77
2022/06/20 09:57:07;;;;;;;;;;;32.20;58.40;;;;;;4957785;29;20134;-77
2022/06/20 10:00:15;;;;;;;5.25;4.20;;;32.30;59.80;;;;;;4968473;28;20326;-80
2022/06/20 10:03:18;;;;;;;5.25;4.50;;;31.80;62.60;;;;;;4956419;28;20023;-79
2022/06/20 10:05:57;;;;;;;7.15;4.40;;;31.00;65.50;;;;;;4957373;29;20102;-77
2022/06/20 10:08:45;;;;;;;6.55;4.65;;;30.70;68.10;;;;;;4957636;29;20035;-75
2022/06/20 10:11:28;;;;;;;12.48;4.13;;;30.80;69.50;;;;;;4939900;29;20038;-75
2022/06/20 10:14:21;;;;;;;8.10;5.13;;;30.70;69.30;;;;;;4956998;29;20390;-74
2022/06/20 10:17:21;;;;;;;6.68;5.10;;;30.10;71.40;;;;;;4956891;29;20111;-74
2022/06/20 10:20:08;;;;;;;8.20;5.55;;;30.40;70.80;;;;;;4957327;29;20028;-74
2022/06/20 10:23:06;;;;;;;5.78;5.28;;;30.40;70.00;;;;;;4940195;29;20035;-74
2022/06/20 10:25:44;;;;;;;11.60;4.97;;;30.90;69.60;;;;;;4956939;29;20051;-77
2022/06/20 10:28:12;;;;;;;12.07;5.67;;;31.40;68.80;;;;;;4940022;29;20471;-74
2022/06/20 10:30:44;;;;;;;8.88;5.47;;;31.60;66.70;;;;;;4939589;29;20829;-76
2022/06/20 10:33:09;;;;;;;16.67;6.90;;;31.60;67.90;;;;;;4939500;29;20045;-75
2022/06/20 10:35:41;;;;;;;21.65;7.95;;;31.70;67.20;;;;;;4939567;29;20031;-77
2022/06/20 10:38:17;;;;;;;17.63;7.78;;;31.20;68.80;;;;;;4956805;29;20023;-75
2022/06/20 10:41:03;;;;;;;16.63;7.03;;;31.00;70.60;;;;;;4939480;29;20031;-74
2022/06/20 10:44:06;;;;;;;16.08;7.63;;;31.00;71.80;;;;;;4956900;29;20383;-74
2022/06/20 10:46:40;;;;;;;17.40;7.47;;;31.40;71.30;;;;;;4956609;29;20031;-74
2022/06/20 10:49:41;;;;;;;13.90;8.15;;;32.00;71.10;;;;;;4956206;29;20027;-77
2022/06/20 10:52:18;;;;;;;15.57;6.90;;;32.30;68.20;;;;;;4939186;29;20023;-78
2022/06/20 10:54:47;;;;;;;13.30;7.50;;;31.90;68.50;;;;;;4956153;29;20032;-77
2022/06/20 10:57:22;;;;;;;;;;;31.70;70.20;;;;;;4939557;29;20391;-77
2022/06/20 11:00:11;;;;;;;19.95;7.22;;;31.70;69.90;;;;;;4956396;29;19953;-78
2022/06/20 11:02:43;;;;;;;19.25;7.32;;;32.10;68.80;;;;;;4939115;29;20023;-79
2022/06/20 11:05:23;;;;;;;19.35;7.72;;;31.90;67.40;;;;;;4938906;29;20058;-79
2022/06/20 11:08:09;;;;;;;17.67;7.75;;;31.50;67.10;;;;;;4939132;29;20540;-78
2022/06/20 11:11:01;;;;;;;17.70;6.53;;;31.10;68.40;;;;;;4939026;29;20122;-78
2022/06/20 11:13:33;;;;;;;14.63;6.25;;;31.10;68.30;;;;;;4955964;28;20416;-78
2022/06/20 11:16:17;;;;;;;16.85;6.28;;;31.40;67.20;;;;;;4955859;29;20490;-78
2022/06/20 11:18:49;;;;;;;14.32;6.38;;;31.80;66.60;;;;;;4938953;29;20027;-78
2022/06/20 11:21:22;;;;;;;11.00;6.07;;;31.50;66.60;;;;;;4938783;29;20094;-78
2022/06/20 11:24:13;;;;;;;19.40;6.35;;;31.20;67.50;;;;;;4938845;29;20088;-79
2022/06/20 11:27:02;;;;;;;15.05;6.78;;;30.70;69.10;;;;;;4938417;29;20094;-76
2022/06/20 11:30:06;;;;;;;15.32;5.95;;;30.10;69.50;;;;;;4955607;29;20055;-77
2022/06/20 11:32:53;;;;;;;16.20;6.80;;;29.50;72.40;;;;;;4956013;29;20066;-73
2022/06/20 11:35:43;;;;;;;12.68;6.60;;;29.30;75.00;;;;;;4939291;29;20082;-75
2022/06/20 11:38:26;;;;;;;12.05;6.60;;;29.40;75.60;;;;;;4938836;29;20031;-75
2022/06/20 11:41:10;;;;;;;15.25;6.40;;;29.10;76.60;;;;;;4955474;29;20082;-76
2022/06/20 11:44:06;;;;;;;11.35;5.72;;;29.10;78.00;;;;;;4938670;29;20031;-66
2022/06/20 11:46:55;;;;;;;16.35;5.88;;;29.00;76.60;;;;;;4955451;29;20059;-66
2022/06/20 11:49:58;;;;;;;14.88;5.57;;;28.50;78.30;;;;;;4955934;29;20034;-66
2022/06/20 11:52:30;;;;;;;13.98;6.45;;;28.40;81.10;;;;;;4955408;29;20058;-66
2022/06/20 11:55:19;;;;;;;12.95;6.22;;;28.30;82.20;;;;;;4938277;29;20470;-68
2022/06/20 11:57:56;;;;;;;18.73;6.55;;;28.40;82.40;;;;;;4955752;29;20031;-67
2022/06/20 12:00:55;;;;;;;18.15;6.70;;;28.40;85.20;;;;;;4955389;29;20459;-67
2022/06/20 12:03:29;;;;;;;11.98;6.05;;;28.30;85.50;;;;;;4955185;29;20031;-67
2022/06/20 12:06:08;;;;;;;14.32;6.88;;;28.10;88.70;;;;;;4954883;29;20435;-67
2022/06/20 12:09:10;;;;;;;11.93;6.78;;;28.10;90.10;;;;;;4955211;29;20037;-70
2022/06/20 12:11:55;;;;;;;18.35;5.97;;;27.80;91.40;;;;;;4955678;29;20035;-71
2022/06/20 12:14:27;;;;;;;14.32;6.70;;;27.70;93.30;;;;;;4955039;29;20028;-64
2022/06/20 12:16:55;;;;;;;12.52;5.93;;;27.60;93.60;;;;;;4954879;29;20091;-57
2022/06/20 12:25:29;;;;;;;13.23;6.40;;;27.00;93.70;;;;;;4954845;28;20095;-69
2022/06/20 12:27:55;;;;;;;11.35;5.30;;;27.10;97.60;;;;;;4945083;29;20043;-72
2022/06/20 12:30:21;;;;;;;12.38;5.45;;;29.10;91.60;;;;;;4958632;29;20378;-72
2022/06/20 12:32:52;;;;;;;14.57;4.97;;;30.30;83.30;;;;;;4959024;29;20103;-72
2022/06/20 12:35:37;;;;;;;14.85;5.22;;;31.10;78.40;;;;;;4958771;29;20491;-68
2022/06/20 12:38:21;;;;;;;7.18;4.40;;;31.80;73.00;;;;;;4941704;29;20035;-75
2022/06/20 12:40:48;;;;;;;13.15;5.40;;;32.50;68.10;;;;;;4941712;29;20032;-75
2022/06/20 12:43:16;;;;;;;12.90;4.93;;;32.50;65.10;;;;;;4941644;29;20090;-75
2022/06/20 12:45:59;;;;;;;11.98;5.03;;;32.40;65.10;;;;;;4958437;29;20383;-75
2022/06/20 12:48:55;;;;;;;14.70;5.38;;;32.90;63.80;;;;;;4942041;29;20035;-75
2022/06/20 12:51:30;;;;;;;11.35;5.15;;;33.30;63.10;;;;;;4958910;29;20028;-75
2022/06/20 12:54:14;;;;;;;10.70;4.97;;;33.90;60.00;;;;;;4958362;29;20031;-76
2022/06/20 12:57:01;;;;;;;8.10;4.88;;;34.20;59.10;;;;;;4958265;29;20387;-75
2022/06/20 12:59:35;;;;;;;9.85;4.75;;;34.30;58.30;;;;;;4958579;29;20162;-75
2022/06/20 13:02:23;;;;;;;10.07;4.85;;;34.70;57.20;;;;;;4941307;29;20035;-75
2022/06/20 13:05:13;;;;;;;12.48;4.82;;;34.80;56.30;;;;;;4958447;29;20024;-76
2022/06/20 13:08:10;;;;;;;9.60;4.47;;;33.60;56.60;;;;;;4957987;29;20360;-75
2022/06/20 13:11:09;;;;;;;13.15;4.72;;;33.40;57.90;;;;;;4941147;29;20086;-75
2022/06/20 13:13:38;;;;;;;6.40;4.50;;;33.40;57.10;;;;;;4936905;29;20419;-75
2022/06/20 13:16:31;;;;;;;12.40;4.65;;;33.90;56.30;;;;;;4958461;29;20134;-75
2022/06/20 13:19:12;;;;;;;10.57;4.35;;;34.30;55.80;;;;;;4958361;29;20030;-76
2022/06/20 13:21:40;;;;;;;9.75;4.60;;;35.20;53.90;;;;;;4958095;29;20054;-75
2022/06/20 13:24:35;;;;;;;10.43;4.05;;;35.70;51.40;;;;;;4957765;29;20415;-76
2022/06/20 13:27:20;;;;;;;8.20;3.65;;;35.10;51.20;;;;;;4941141;29;20054;-75
2022/06/20 13:29:57;;;;;;;6.10;3.55;;;35.20;50.70;;;;;;4940731;29;20534;-75
2022/06/20 13:32:51;;;;;;;10.18;3.97;;;35.20;50.30;;;;;;4958050;29;20028;-76
2022/06/20 13:35:25;;;;;;;11.07;3.85;;;35.00;50.30;;;;;;4947478;29;20070;-76
2022/06/20 13:37:56;;;;;;;8.57;4.45;;;35.60;50.20;;;;;;4957562;28;20031;-76
2022/06/20 13:40:35;;;;;;;6.18;3.50;;;35.80;49.00;;;;;;4940664;29;20398;-75
2022/06/20 13:43:17;;;;;;;10.68;3.95;;;35.70;48.90;;;;;;4957817;29;20031;-76
2022/06/20 13:45:49;;;;;;;9.85;3.42;;;35.30;48.80;;;;;;4957847;29;20031;-76
2022/06/20 13:48:34;;;;;;;3.80;3.00;;;34.70;49.10;;;;;;4940182;29;20035;-76
2022/06/20 13:51:14;;;;;;;9.93;3.90;;;34.80;49.60;;;;;;4957388;29;20540;-76
2022/06/20 13:54:17;;;;;;;8.30;3.90;;;34.80;50.20;;;;;;4957491;29;20028;-76